createdAt,value
2023-01-12T00:01:29.480Z,100437.45
2023-01-12T00:03:56.512Z,100442.68
2023-01-12T00:06:23.477Z,100443.96
2023-01-12T00:08:51.011Z,100450.27
2023-01-12T00:11:17.978Z,100454.09
2023-01-12T00:13:44.789Z,100452.56
2023-01-12T00:16:37.056Z,100453.81
2023-01-12T00:19:11.080Z,100458.34
2023-01-12T00:21:58.720Z,100460.40
2023-01-12T00:24:27.141Z,100465.16
2023-01-12T00:26:54.553Z,100470.73
2023-01-12T00:29:21.574Z,100467.60
2023-01-12T00:31:48.357Z,100461.09
2023-01-12T00:34:15.262Z,100465.60
2023-01-12T00:36:42.046Z,100465.27
2023-01-12T00:39:08.944Z,100466.20
2023-01-12T00:41:56.701Z,100466.39
2023-01-12T00:44:42.828Z,100464.14
2023-01-12T00:47:10.009Z,100459.80
2023-01-12T00:49:37.016Z,100455.86
2023-01-12T00:52:06.079Z,100445.39
2023-01-12T00:54:34.455Z,100436.85
2023-01-12T00:57:01.945Z,100442.09
2023-01-12T00:59:29.339Z,100445.21
2023-01-12T01:01:56.435Z,100444.94
2023-01-12T01:04:24.182Z,100442.90
2023-01-12T01:06:51.065Z,100448.18
2023-01-12T01:09:17.894Z,100448.79
2023-01-12T01:11:44.665Z,100449.21
2023-01-12T01:14:11.472Z,100450.70
2023-01-12T01:16:38.253Z,100445.86
2023-01-12T01:19:05.983Z,100454.14
2023-01-12T01:21:33.509Z,100461.65
2023-01-12T01:24:00.425Z,100462.02
2023-01-12T01:26:27.301Z,100461.52
2023-01-12T01:28:54.100Z,100466.15
2023-01-12T01:31:22.487Z,100465.52
2023-01-12T01:33:49.595Z,100463.79
2023-01-12T01:36:16.547Z,100471.98
2023-01-12T01:38:44.607Z,100475.95
2023-01-12T01:41:23.272Z,100475.58
2023-01-12T01:44:02.927Z,100478.06
2023-01-12T01:46:31.769Z,100489.43
2023-01-12T01:49:10.282Z,100487.79
2023-01-12T01:51:37.104Z,100486.44
2023-01-12T01:54:04.025Z,100492.16
2023-01-12T01:56:33.981Z,100502.77
2023-01-12T01:59:21.304Z,100493.52
2023-01-12T02:01:48.153Z,100488.92
2023-01-12T02:04:15.944Z,100483.27
2023-01-12T02:06:43.462Z,100481.75
2023-01-12T02:09:15.244Z,100484.80
2023-01-12T02:12:01.319Z,100486.52
2023-01-12T02:14:47.020Z,100487.28
2023-01-12T02:17:40.386Z,100489.59
2023-01-12T02:20:48.711Z,100486.33
2023-01-12T02:23:38.806Z,100486.65
2023-01-12T02:26:35.806Z,100485.10
2023-01-12T02:29:21.608Z,100487.11
2023-01-12T02:32:23.543Z,100495.38
2023-01-12T02:34:56.496Z,100486.53
2023-01-12T02:37:39.171Z,100483.48
2023-01-12T02:40:23.996Z,100486.54
2023-01-12T02:43:09.792Z,100493.96
2023-01-12T02:45:51.297Z,100484.50
2023-01-12T02:48:22.612Z,100469.49
2023-01-12T02:50:52.015Z,100473.36
2023-01-12T02:53:29.662Z,100468.42
2023-01-12T02:55:57.898Z,100463.52
2023-01-12T02:58:24.682Z,100467.91
2023-01-12T03:00:51.905Z,100465.59
2023-01-12T03:03:19.438Z,100463.17
2023-01-12T03:05:47.663Z,100455.45
2023-01-12T03:08:16.700Z,100448.91
2023-01-12T03:10:58.846Z,100447.62
2023-01-12T03:13:25.594Z,100441.11
2023-01-12T03:15:53.701Z,100439.00
2023-01-12T03:18:59.877Z,100434.86
2023-01-12T03:21:33.092Z,100420.39
2023-01-12T03:24:12.078Z,100418.67
2023-01-12T03:26:43.188Z,100409.80
2023-01-12T03:29:25.397Z,100405.73
2023-01-12T03:31:52.090Z,100410.27
2023-01-12T03:34:18.893Z,100406.92
2023-01-12T03:36:46.799Z,100404.21
2023-01-12T03:39:44.758Z,100399.04
2023-01-12T03:42:11.421Z,100404.62
2023-01-12T03:44:43.042Z,100405.23
2023-01-12T03:47:17.151Z,100400.52
2023-01-12T03:49:55.750Z,100398.02
2023-01-12T03:52:22.542Z,100395.13
2023-01-12T03:54:49.443Z,100399.89
2023-01-12T03:57:17.173Z,100396.44
2023-01-12T03:59:43.986Z,100400.80
2023-01-12T04:02:10.700Z,100402.00
2023-01-12T04:04:37.385Z,100400.69
2023-01-12T04:07:04.159Z,100396.39
2023-01-12T04:09:30.958Z,100393.64
2023-01-12T04:12:13.079Z,100391.31
2023-01-12T04:14:43.252Z,100387.48
2023-01-12T04:17:11.790Z,100382.91
2023-01-12T04:19:38.572Z,100384.55
2023-01-12T04:22:24.122Z,100382.80
2023-01-12T04:24:50.867Z,100374.35
2023-01-12T04:27:17.782Z,100375.71
2023-01-12T04:29:44.898Z,100375.83
2023-01-12T04:32:11.996Z,100368.67
2023-01-12T04:34:39.628Z,100369.60
2023-01-12T04:37:06.435Z,100366.70
2023-01-12T04:39:33.166Z,100363.30
2023-01-12T04:41:59.905Z,100359.32
2023-01-12T04:44:26.596Z,100355.51
2023-01-12T04:46:53.292Z,100354.88
2023-01-12T04:49:20.169Z,100351.51
2023-01-12T04:51:46.991Z,100355.81
2023-01-12T04:54:13.751Z,100358.16
2023-01-12T04:56:40.754Z,100354.26
2023-01-12T04:59:09.879Z,100352.39
2023-01-12T05:01:39.207Z,100358.50
2023-01-12T05:04:07.958Z,100358.69
2023-01-12T05:06:34.849Z,100360.30
2023-01-12T05:09:20.444Z,100362.70
2023-01-12T05:11:47.314Z,100368.52
2023-01-12T05:14:14.058Z,100364.80
2023-01-12T05:16:40.810Z,100364.16
2023-01-12T05:19:08.671Z,100363.01
2023-01-12T05:21:35.384Z,100362.58
2023-01-12T05:24:02.087Z,100359.13
2023-01-12T05:26:28.787Z,100353.55
2023-01-12T05:28:55.546Z,100350.45
2023-01-12T05:31:22.248Z,100351.60
2023-01-12T05:33:49.136Z,100358.24
2023-01-12T05:36:16.356Z,100363.06
2023-01-12T05:38:43.151Z,100356.06
2023-01-12T05:41:10.899Z,100350.39
2023-01-12T05:43:53.208Z,100346.35
2023-01-12T05:46:30.682Z,100345.38
2023-01-12T05:48:57.904Z,100351.20
2023-01-12T05:51:25.707Z,100354.91
2023-01-12T05:53:52.548Z,100358.94
2023-01-12T05:56:25.874Z,100360.88
2023-01-12T05:58:53.933Z,100363.89
2023-01-12T06:01:20.756Z,100363.38
2023-01-12T06:03:54.314Z,100365.20
2023-01-12T06:06:21.641Z,100368.80
2023-01-12T06:08:50.642Z,100365.96
2023-01-12T06:11:37.740Z,100362.26
2023-01-12T06:14:04.517Z,100358.36
2023-01-12T06:16:31.278Z,100359.12
2023-01-12T06:18:57.970Z,100360.52
2023-01-12T06:21:24.803Z,100357.41
2023-01-12T06:23:51.777Z,100349.97
2023-01-12T06:26:18.569Z,100347.83
2023-01-12T06:28:45.281Z,100345.13
2023-01-12T06:31:12.824Z,100342.78
2023-01-12T06:33:39.919Z,100341.94
2023-01-12T06:36:07.336Z,100344.95
2023-01-12T06:38:34.871Z,100341.97
2023-01-12T06:41:06.039Z,100342.66
2023-01-12T06:43:32.850Z,100340.42
2023-01-12T06:45:59.604Z,100347.55
2023-01-12T06:48:26.430Z,100348.05
2023-01-12T06:51:06.100Z,100349.65
2023-01-12T06:53:32.818Z,100350.50
2023-01-12T06:55:59.560Z,100350.33
2023-01-12T06:58:26.273Z,100355.52
2023-01-12T07:00:53.071Z,100358.92
2023-01-12T07:03:20.399Z,100354.55
2023-01-12T07:05:47.355Z,100361.23
2023-01-12T07:08:19.109Z,100366.41
2023-01-12T07:10:46.659Z,100377.06
2023-01-12T07:13:13.703Z,100375.86
2023-01-12T07:15:40.454Z,100384.23
2023-01-12T07:18:07.223Z,100385.80
2023-01-12T07:20:33.928Z,100381.14
2023-01-12T07:23:00.864Z,100384.48
2023-01-12T07:25:27.608Z,100378.41
2023-01-12T07:27:58.073Z,100376.29
2023-01-12T07:30:25.401Z,100367.75
2023-01-12T07:32:52.215Z,100358.59
2023-01-12T07:35:19.019Z,100355.95
2023-01-12T07:37:53.908Z,100358.65
2023-01-12T07:40:20.730Z,100362.46
2023-01-12T07:42:47.521Z,100355.77
2023-01-12T07:45:14.342Z,100362.27
2023-01-12T07:47:41.115Z,100357.22
2023-01-12T07:50:08.840Z,100358.70
2023-01-12T07:52:35.724Z,100353.21
2023-01-12T07:55:02.447Z,100357.11
2023-01-12T07:57:29.491Z,100359.56
2023-01-12T07:59:56.248Z,100358.77
2023-01-12T08:02:23.030Z,100348.89
2023-01-12T08:04:49.919Z,100359.95
2023-01-12T08:07:16.603Z,100347.41
2023-01-12T08:09:43.435Z,100346.08
2023-01-12T08:12:10.199Z,100348.79
2023-01-12T08:14:37.953Z,100358.67
2023-01-12T08:17:07.924Z,100349.32
2023-01-12T08:19:44.995Z,100360.09
2023-01-12T08:22:19.071Z,100359.20
2023-01-12T08:24:52.262Z,100352.73
2023-01-12T08:27:19.141Z,100354.58
2023-01-12T08:29:47.790Z,100350.33
2023-01-12T08:32:16.532Z,100348.17
2023-01-12T08:34:44.574Z,100344.18
2023-01-12T08:37:12.847Z,100341.39
2023-01-12T08:39:39.726Z,100340.79
2023-01-12T08:42:06.810Z,100336.27
2023-01-12T08:44:35.463Z,100324.42
2023-01-12T08:47:03.266Z,100326.23
2023-01-12T08:49:30.384Z,100331.35
2023-01-12T08:51:57.196Z,100331.18
2023-01-12T08:54:24.083Z,100325.99
2023-01-12T08:56:51.304Z,100325.33
2023-01-12T08:59:19.421Z,100326.86
2023-01-12T09:01:46.387Z,100323.05
2023-01-12T09:04:13.332Z,100322.64
2023-01-12T09:06:44.451Z,100323.05
2023-01-12T09:09:19.372Z,100325.95
2023-01-12T09:11:47.102Z,100324.58
2023-01-12T09:14:14.087Z,100328.13
2023-01-12T09:16:41.024Z,100325.48
2023-01-12T09:19:07.994Z,100324.20
2023-01-12T09:21:37.760Z,100324.30
2023-01-12T09:24:05.305Z,100324.95
2023-01-12T09:26:36.057Z,100331.30
2023-01-12T09:29:04.445Z,100324.67
2023-01-12T09:31:32.415Z,100331.73
2023-01-12T09:33:59.546Z,100330.32
2023-01-12T09:36:34.182Z,100335.52
2023-01-12T09:39:02.282Z,100330.81
2023-01-12T09:41:48.203Z,100329.05
2023-01-12T09:45:03.372Z,100328.43
2023-01-12T09:47:39.852Z,100319.48
2023-01-12T09:50:11.020Z,100320.48
2023-01-12T09:52:44.880Z,100321.00
2023-01-12T09:55:19.666Z,100324.77
2023-01-12T09:58:19.449Z,100320.91
2023-01-12T10:00:54.372Z,100323.31
2023-01-12T10:03:30.077Z,100316.29
2023-01-12T10:05:59.327Z,100316.66
2023-01-12T10:08:48.112Z,100309.05
2023-01-12T10:11:35.956Z,100311.11
2023-01-12T10:14:22.487Z,100311.97
2023-01-12T10:17:19.283Z,100305.20
2023-01-12T10:20:02.624Z,100300.20
2023-01-12T10:22:56.326Z,100291.66
2023-01-12T10:25:29.305Z,100282.05
2023-01-12T10:27:57.955Z,100279.37
2023-01-12T10:30:30.479Z,100283.02
2023-01-12T10:32:58.821Z,100278.31
2023-01-12T10:35:25.909Z,100273.84
2023-01-12T10:37:56.477Z,100277.27
2023-01-12T10:40:26.998Z,100277.66
2023-01-12T10:43:32.130Z,100276.59
2023-01-12T10:46:22.513Z,100276.83
2023-01-12T10:48:53.886Z,100282.86
2023-01-12T10:51:27.975Z,100287.45
2023-01-12T10:53:57.585Z,100286.63
2023-01-12T10:56:27.823Z,100288.73
2023-01-12T10:59:19.724Z,100290.34
2023-01-12T11:01:51.242Z,100284.92
2023-01-12T11:04:23.229Z,100280.45
2023-01-12T11:07:05.245Z,100278.15
2023-01-12T11:09:32.363Z,100283.55
2023-01-12T11:12:03.681Z,100284.70
2023-01-12T11:14:31.823Z,100281.71
2023-01-12T11:17:24.797Z,100285.61
2023-01-12T11:19:51.500Z,100286.03
2023-01-12T11:22:27.505Z,100282.20
2023-01-12T11:25:09.886Z,100270.46
2023-01-12T11:27:42.224Z,100259.33
2023-01-12T11:30:32.093Z,100259.41
2023-01-12T11:33:01.624Z,100255.73
2023-01-12T11:35:41.937Z,100253.77
2023-01-12T11:38:45.084Z,100256.13
2023-01-12T11:41:29.239Z,100267.41
2023-01-12T11:44:18.234Z,100268.46
2023-01-12T11:46:52.341Z,100269.46
2023-01-12T11:49:19.111Z,100274.27
2023-01-12T11:51:48.774Z,100272.92
2023-01-12T11:54:16.924Z,100267.92
2023-01-12T11:57:01.504Z,100260.80
2023-01-12T12:00:04.560Z,100254.41
2023-01-12T12:02:46.936Z,100246.56
2023-01-12T12:05:21.152Z,100243.67
2023-01-12T12:07:55.527Z,100244.08
2023-01-12T12:10:24.303Z,100239.73
2023-01-12T12:13:10.623Z,100242.69
2023-01-12T12:16:15.225Z,100237.98
2023-01-12T12:18:50.031Z,100237.25
2023-01-12T12:21:44.481Z,100240.42
2023-01-12T12:24:39.222Z,100239.04
2023-01-12T12:27:35.411Z,100236.86
2023-01-12T12:30:02.113Z,100234.89
2023-01-12T12:32:41.193Z,100230.50
2023-01-12T12:35:26.791Z,100227.55
2023-01-12T12:38:12.514Z,100226.99
2023-01-12T12:41:25.843Z,100230.61
2023-01-12T12:44:44.400Z,100232.61
2023-01-12T12:47:36.342Z,100241.27
2023-01-12T12:50:04.011Z,100240.18
2023-01-12T12:52:34.976Z,100238.41
2023-01-12T12:55:01.701Z,100246.14
2023-01-12T12:57:28.419Z,100248.06
2023-01-12T12:59:57.075Z,100254.89
2023-01-12T13:03:00.070Z,100253.52
2023-01-12T13:05:41.917Z,100251.43
2023-01-12T13:08:19.216Z,100245.17
2023-01-12T13:10:59.963Z,100240.14
2023-01-12T13:13:34.034Z,100240.34
2023-01-12T13:16:10.083Z,100248.98
2023-01-12T13:19:04.503Z,100248.91
2023-01-12T13:21:50.620Z,100252.30
2023-01-12T13:24:22.372Z,100250.30
2023-01-12T13:26:53.873Z,100255.44
2023-01-12T13:29:23.797Z,100255.16
2023-01-12T13:31:51.167Z,100252.11
2023-01-12T13:34:36.449Z,100250.00
2023-01-12T13:37:19.150Z,100245.16
2023-01-12T13:39:52.504Z,100242.75
2023-01-12T13:42:52.701Z,100239.15
2023-01-12T13:45:19.852Z,100242.25
2023-01-12T13:47:47.444Z,100237.77
2023-01-12T13:50:18.246Z,100238.58
2023-01-12T13:52:44.981Z,100233.92
2023-01-12T13:55:22.946Z,100237.21
2023-01-12T13:57:57.756Z,100242.25
2023-01-12T14:00:25.055Z,100249.33
2023-01-12T14:02:52.219Z,100248.75
2023-01-12T14:05:40.543Z,100251.14
2023-01-12T14:08:50.140Z,100257.58
2023-01-12T14:11:36.492Z,100257.84
2023-01-12T14:14:31.343Z,100254.66
2023-01-12T14:17:16.825Z,100257.46
2023-01-12T14:19:49.683Z,100257.61
2023-01-12T14:22:19.755Z,100265.29
2023-01-12T14:24:46.492Z,100261.16
2023-01-12T14:27:21.311Z,100263.66
2023-01-12T14:29:48.067Z,100265.63
2023-01-12T14:32:14.768Z,100268.77
2023-01-12T14:34:48.992Z,100268.41
2023-01-12T14:37:34.349Z,100263.08
2023-01-12T14:40:01.143Z,100266.46
2023-01-12T14:42:46.784Z,100265.71
2023-01-12T14:45:44.773Z,100262.45
2023-01-12T14:48:28.108Z,100262.65
2023-01-12T14:51:01.547Z,100263.32
2023-01-12T14:53:33.135Z,100265.90
2023-01-12T14:56:15.520Z,100265.26
2023-01-12T14:58:43.816Z,100260.46
2023-01-12T15:01:11.192Z,100263.36
2023-01-12T15:03:43.754Z,100260.29
2023-01-12T15:06:14.833Z,100258.45
2023-01-12T15:08:52.581Z,100259.91
2023-01-12T15:11:32.164Z,100265.50
2023-01-12T15:13:59.657Z,100268.21
2023-01-12T15:16:45.370Z,100267.78
2023-01-12T15:19:30.861Z,100267.23
2023-01-12T15:22:16.653Z,100271.88
2023-01-12T15:25:02.083Z,100266.73
2023-01-12T15:27:29.399Z,100267.65
2023-01-12T15:29:56.492Z,100276.35
2023-01-12T15:32:45.499Z,100275.70
2023-01-12T15:35:18.295Z,100274.09
2023-01-12T15:37:45.218Z,100264.83
2023-01-12T15:40:15.196Z,100262.34
2023-01-12T15:42:42.331Z,100262.46
2023-01-12T15:45:31.983Z,100264.52
2023-01-12T15:47:58.736Z,100268.82
2023-01-12T15:50:25.619Z,100262.02
2023-01-12T15:52:52.819Z,100264.71
2023-01-12T15:55:20.975Z,100262.45
2023-01-12T15:57:47.678Z,100261.52
2023-01-12T16:00:16.193Z,100259.84
2023-01-12T16:02:45.590Z,100259.42
2023-01-12T16:05:12.429Z,100260.80
2023-01-12T16:07:39.167Z,100266.58
2023-01-12T16:10:06.676Z,100265.05
2023-01-12T16:12:33.388Z,100268.50
2023-01-12T16:15:01.102Z,100266.52
2023-01-12T16:17:27.884Z,100260.13
2023-01-12T16:19:54.768Z,100257.39
2023-01-12T16:22:26.596Z,100257.73
2023-01-12T16:24:54.994Z,100255.65
2023-01-12T16:27:23.376Z,100250.53
2023-01-12T16:29:50.423Z,100247.58
2023-01-12T16:32:17.777Z,100247.23
2023-01-12T16:34:45.953Z,100249.98
2023-01-12T16:37:13.765Z,100247.17
2023-01-12T16:39:41.093Z,100242.84
2023-01-12T16:42:08.333Z,100236.33
2023-01-12T16:44:38.602Z,100233.23
2023-01-12T16:47:06.605Z,100231.33
2023-01-12T16:49:36.103Z,100233.44
2023-01-12T16:52:04.003Z,100230.20
2023-01-12T16:54:30.895Z,100229.95
2023-01-12T16:56:58.975Z,100223.46
2023-01-12T16:59:28.495Z,100215.70
2023-01-12T17:01:55.614Z,100212.36
2023-01-12T17:04:23.365Z,100213.00
2023-01-12T17:06:50.964Z,100216.65
2023-01-12T17:09:18.065Z,100217.66
2023-01-12T17:11:45.068Z,100217.08
2023-01-12T17:14:24.609Z,100220.23
2023-01-12T17:16:52.598Z,100227.73
2023-01-12T17:19:20.029Z,100222.52
2023-01-12T17:21:47.220Z,100214.56
2023-01-12T17:24:17.958Z,100221.88
2023-01-12T17:26:45.383Z,100227.48
2023-01-12T17:29:12.173Z,100228.67
2023-01-12T17:31:40.008Z,100229.23
2023-01-12T17:34:08.000Z,100227.90
2023-01-12T17:36:34.729Z,100228.37
2023-01-12T17:39:01.440Z,100225.73
2023-01-12T17:41:47.010Z,100226.30
2023-01-12T17:44:13.787Z,100223.20
2023-01-12T17:46:40.583Z,100227.66
2023-01-12T17:49:08.211Z,100224.93
2023-01-12T17:51:35.518Z,100220.27
2023-01-12T17:54:03.338Z,100214.52
2023-01-12T17:56:31.605Z,100218.85
2023-01-12T17:58:58.799Z,100216.66
2023-01-12T18:01:26.822Z,100218.23
2023-01-12T18:03:53.621Z,100211.91
2023-01-12T18:06:26.378Z,100215.02
2023-01-12T18:08:56.562Z,100211.70
2023-01-12T18:11:23.667Z,100217.52
2023-01-12T18:13:50.417Z,100217.30
2023-01-12T18:16:17.216Z,100215.73
2023-01-12T18:18:44.225Z,100213.74
2023-01-12T18:21:15.378Z,100207.37
2023-01-12T18:23:43.596Z,100205.20
2023-01-12T18:26:16.130Z,100202.77
2023-01-12T18:28:43.093Z,100202.04
2023-01-12T18:31:14.948Z,100204.42
2023-01-12T18:33:41.989Z,100202.13
2023-01-12T18:36:10.467Z,100206.55
2023-01-12T18:38:40.173Z,100210.22
2023-01-12T18:41:25.710Z,100219.95
2023-01-12T18:43:53.014Z,100213.63
2023-01-12T18:46:20.022Z,100212.66
2023-01-12T18:48:47.623Z,100213.55
2023-01-12T18:51:33.148Z,100218.30
2023-01-12T18:54:00.433Z,100225.49
2023-01-12T18:56:27.314Z,100220.66
2023-01-12T18:58:54.146Z,100217.77
2023-01-12T19:01:27.072Z,100217.33
2023-01-12T19:03:54.083Z,100225.52
2023-01-12T19:06:40.613Z,100230.62
2023-01-12T19:09:26.403Z,100226.96
2023-01-12T19:11:53.221Z,100225.32
2023-01-12T19:14:38.817Z,100230.88
2023-01-12T19:17:24.532Z,100228.23
2023-01-12T19:19:51.432Z,100221.77
2023-01-12T19:22:37.040Z,100214.00
2023-01-12T19:25:23.309Z,100213.52
2023-01-12T19:28:09.302Z,100203.70
2023-01-12T19:30:39.111Z,100204.08
2023-01-12T19:33:14.949Z,100206.29
2023-01-12T19:35:45.814Z,100212.04
2023-01-12T19:38:13.672Z,100208.83
2023-01-12T19:40:46.837Z,100207.15
2023-01-12T19:43:19.019Z,100211.88
2023-01-12T19:45:48.178Z,100215.11
2023-01-12T19:48:15.859Z,100217.27
2023-01-12T19:50:44.107Z,100224.45
2023-01-12T19:53:15.743Z,100221.40
2023-01-12T19:55:42.621Z,100216.46
2023-01-12T19:58:09.513Z,100216.77
2023-01-12T20:00:46.205Z,100222.02
2023-01-12T20:03:14.391Z,100220.85
2023-01-12T20:05:42.136Z,100226.77
2023-01-12T20:08:09.352Z,100227.94
2023-01-12T20:10:38.204Z,100221.90
2023-01-12T20:13:06.246Z,100221.50
2023-01-12T20:15:33.608Z,100220.59
2023-01-12T20:18:02.194Z,100214.34
2023-01-12T20:20:29.907Z,100213.85
2023-01-12T20:22:56.629Z,100219.89
2023-01-12T20:25:24.133Z,100209.64
2023-01-12T20:27:51.337Z,100212.29
2023-01-12T20:30:31.941Z,100218.48
2023-01-12T20:33:03.617Z,100219.66
2023-01-12T20:35:30.358Z,100216.23
2023-01-12T20:37:57.332Z,100216.49
2023-01-12T20:40:24.062Z,100217.28
2023-01-12T20:42:50.808Z,100220.13
2023-01-12T20:45:19.283Z,100217.73
2023-01-12T20:47:46.039Z,100222.86
2023-01-12T20:50:14.789Z,100209.77
2023-01-12T20:52:41.792Z,100215.67
2023-01-12T20:55:08.699Z,100221.01
2023-01-12T20:57:36.722Z,100223.69
2023-01-12T21:00:05.391Z,100226.92
2023-01-12T21:02:32.222Z,100227.29
2023-01-12T21:04:58.991Z,100233.16
2023-01-12T21:07:25.787Z,100241.80
2023-01-12T21:09:52.652Z,100242.87
2023-01-12T21:12:19.772Z,100244.73
2023-01-12T21:14:46.823Z,100237.70
2023-01-12T21:17:13.574Z,100240.27
2023-01-12T21:19:40.598Z,100237.42
2023-01-12T21:22:07.296Z,100237.84
2023-01-12T21:24:34.200Z,100233.94
2023-01-12T21:27:01.056Z,100233.14
2023-01-12T21:29:27.865Z,100242.50
2023-01-12T21:31:54.630Z,100244.98
2023-01-12T21:34:21.877Z,100245.98
2023-01-12T21:36:49.081Z,100238.59
2023-01-12T21:39:15.989Z,100232.52
2023-01-12T21:42:01.488Z,100233.95
2023-01-12T21:44:28.287Z,100229.17
2023-01-12T21:46:55.004Z,100219.22
2023-01-12T21:49:21.769Z,100217.29
2023-01-12T21:51:48.666Z,100216.20
2023-01-12T21:54:15.377Z,100223.05
2023-01-12T21:56:42.044Z,100216.90
2023-01-12T21:59:10.288Z,100213.29
2023-01-12T22:01:37.193Z,100206.71
2023-01-12T22:04:04.184Z,100202.09
2023-01-12T22:06:31.271Z,100207.27
2023-01-12T22:08:58.180Z,100202.55
2023-01-12T22:11:24.971Z,100198.88
2023-01-12T22:13:51.782Z,100191.48
2023-01-12T22:16:18.968Z,100185.84
2023-01-12T22:18:47.258Z,100180.98
2023-01-12T22:21:14.042Z,100177.23
2023-01-12T22:23:40.763Z,100177.13
2023-01-12T22:26:09.468Z,100174.89
2023-01-12T22:28:37.423Z,100178.33
2023-01-12T22:31:23.573Z,100177.96
2023-01-12T22:33:58.547Z,100175.27
2023-01-12T22:36:25.320Z,100176.84
2023-01-12T22:38:52.021Z,100178.98
2023-01-12T22:41:21.756Z,100185.92
2023-01-12T22:43:49.260Z,100184.38
2023-01-12T22:46:25.773Z,100189.64
2023-01-12T22:48:53.765Z,100188.20
2023-01-12T22:51:24.856Z,100192.48
2023-01-12T22:53:51.643Z,100197.11
2023-01-12T22:56:18.383Z,100193.71
2023-01-12T22:58:52.433Z,100186.07
2023-01-12T23:01:21.511Z,100187.06
2023-01-12T23:03:48.760Z,100182.04
2023-01-12T23:06:16.654Z,100180.52
2023-01-12T23:08:43.895Z,100177.15
2023-01-12T23:11:15.729Z,100181.60
2023-01-12T23:13:43.170Z,100181.55
2023-01-12T23:16:10.754Z,100177.02
2023-01-12T23:18:38.747Z,100172.98
2023-01-12T23:21:35.523Z,100169.52
2023-01-12T23:24:02.301Z,100165.11
2023-01-12T23:26:31.207Z,100164.57
2023-01-12T23:29:00.309Z,100162.98
2023-01-12T23:31:29.257Z,100154.23
2023-01-12T23:33:57.151Z,100157.45
2023-01-12T23:36:25.715Z,100153.69
2023-01-12T23:42:52.180Z,100159.02
2023-01-12T23:45:18.961Z,100160.23
2023-01-12T23:47:45.742Z,100164.82
2023-01-12T23:50:12.711Z,100160.00
2023-01-12T23:52:39.487Z,100162.00
2023-01-12T23:55:07.057Z,100162.64
2023-01-12T23:57:34.401Z,100161.11
